Terminal Aerodrome Forecast
Issued by NWS Charleston, WV

Current Version | Previous Version | Graphics & Text | Print | Product List | Glossary On
Versions: 1 2 3 4 5 6 7 8 9 10 11 12 13 14 15 16 17 18 19 20 21 22 23 24 25 26 27 28 29
058
FTUS41 KRLX 231530 AAC
TAFCRW
TAF AMD
KCRW 231530Z 2316/2412 VRB03KT P6SM BKN025
      TEMPO 2316/2318 BKN035
     FM231800 20004KT P6SM BKN040
     FM240100 VRB03KT P6SM SCT250=

USA.gov is the U.S. government's official web portal to all federal, state and local government web resources and services.